Neves, Brazil
Current Conditions -  °F | °C
As of 11:00 PM on Thursday 30 Oct 2014 (Local Time) from SBRJ Reporting Station
Clear Clear  
Wind Chill: 86°   Ceiling: Unl
Heat Index: 89°   Visibility: 6mi
Dew Point: 68°   Wind: 2mph
Humidity: 55%   Direction: 20°NNE
Pressure: 29.83"   Gusts: NA
Location:  22.86°S, 43.09°W
Report Text: SBRJ 310100Z 02002KT CAVOK 30/20 Q1010
Loading
Personal Weather Stations






























Interactive Weather Map
Tropical Storm Tracking
New forecast layout! Learn more

10-Day Weather Forecast

Advertisements
Track Severe Weather on mobile